• Join FlightAware (Why Join?)
  • Login
  • US Flag 
12:26AM EDT


 

Airport Tracker/Info


-or-


 

Live Flight TrackerFlight Track Log ✈ N3746H ✈ 30-Apr-2013 ✈ KMSY - KLAX

Flight Track Log - Related Links

Times and Time Zones

All times are in EDT time to prevent confusion due to time zone crossing. See the N3746H flight status page for this flight to view local times or setup timezone preferences in your user account.

Time Position Orientation Groundspeed Altitude Reporting Facility
EDT Latitude Longitude Course Direction KTS MPH feet Rate Location/Type
08:39AM 29.9719 -90.2564 278° West 175 201 900  Level Houston Center
08:40AM 29.9369 -90.2769 207° Southwest 201 231 2,300 1,860 Climbing Houston Center
08:41AM 29.9319 -90.3050 258° West 265 305 3,000 2,880 Climbing Houston Center
08:42AM 29.8471 -90.6059 240° Southwest  Level FlightAware Approximate
08:42AM 29.9247 -90.3925 265° West 274 315 6,200  Level Houston Center
08:43AM 29.8339 -90.7227 277° West  Level FlightAware Approximate
08:43AM 29.9175 -90.4825 265° West 277 319 9,300  Level Houston Center
08:44AM 29.8470 -90.8531 277° West  Level FlightAware Approximate
08:44AM 29.9058 -90.5756 262° West 295 339 11,200  Level Houston Center
08:45AM 29.8625 -90.9833 278° West  Level FlightAware Approximate
08:45AM 29.8944 -90.6889 263° West 351 404 13,800  Level Houston Center
08:46AM 29.8819 -90.8039 263° West 362 417 16,500 2,220 Climbing Houston Center
08:47AM 29.8778 -90.9239 268° West 380 437 18,400 1,980 Climbing Houston Center
08:48AM 29.8853 -91.0511 274° West 398 458 20,600 2,160 Climbing Houston Center
08:49AM 29.8906 -91.2075 272° West 407 468 22,900 1,980 Climbing Houston Center
08:50AM 29.8964 -91.3411 273° West 419 482 24,700 1,440 Climbing Houston Center
08:51AM 29.9167 -91.4764 280° West 428 493 25,900 1,200 Climbing Houston Center
08:52AM 29.9381 -91.6156 280° West 440 506 27,200 1,380 Climbing Houston Center
08:53AM 29.9550 -91.7503 278° West 442 509 28,800 1,320 Climbing Houston Center
08:54AM 29.9731 -91.8861 279° West 433 498 30,000 720 Climbing Houston Center
08:55AM 29.9953 -92.0456 279° West 423 487 30,400 1,140 Climbing Houston Center
08:56AM 30.0208 -92.1733 283° West 414 476 32,400 1,260 Climbing Houston Center
08:57AM 30.0458 -92.2986 283° West 404 465 33,100 600 Climbing Houston Center
08:58AM 30.0714 -92.4267 283° West 408 470 33,700 720 Climbing Houston Center
08:59AM 30.0961 -92.5597 282° West 419 482 34,600 840 Climbing Houston Center
09:00AM 30.1208 -92.6906 282° West 418 481 35,500 660 Climbing Houston Center
09:01AM 30.1469 -92.8197 283° West 415 478 36,000 240 Climbing Houston Center
09:02AM 30.1767 -92.9775 282° West 419 482 36,000  Level Houston Center
09:03AM 30.2003 -93.1069 282° West 414 476 36,000  Level Houston Center
09:04AM 30.2242 -93.2356 282° West 409 471 36,000  Level Houston Center
09:05AM 30.2481 -93.3647 282° West 409 471 36,000  Level Houston Center
09:06AM 30.2700 -93.4850 282° West 412 474 36,000  Level Houston Center
09:07AM 30.2986 -93.6383 282° West 410 472 36,000  Level Houston Center
09:08AM 30.3231 -93.7636 283° West 420 483 36,000  Level Houston Center
09:09AM 30.3464 -93.8953 282° West 416 479 36,000  Level Houston Center
09:10AM 30.3700 -94.0264 282° West 418 481 36,000  Level Houston Center
09:11AM 30.3939 -94.1567 282° West 419 482 36,000  Level Houston Center
09:12AM 30.4167 -94.2903 281° West 423 487 36,000  Level Houston Center
09:13AM 30.4453 -94.4511 282° West 426 490 36,000  Level Houston Center
09:14AM 30.4689 -94.5939 281° West 425 489 36,000  Level Houston Center
09:15AM 30.4928 -94.7297 282° West 428 493 36,000  Level Houston Center
09:17AM 30.5172 -94.8678 282° West 433 498 36,000  Level Houston Center
09:18AM 30.5403 -95.0044 281° West 431 496 36,000  Level Houston Center
09:19AM 30.5647 -95.1414 282° West 432 497 36,000  Level Houston Center
09:20AM 30.5869 -95.2775 281° West 429 494 36,000  Level Houston Center
09:21AM 30.6108 -95.4153 281° West 431 496 36,000  Level Houston Center
09:22AM 30.6347 -95.5475 282° West 426 490 36,000  Level Houston Center
09:23AM 30.6569 -95.6817 281° West 425 489 36,000  Level Houston Center
09:24AM 30.6822 -95.8456 280° West 421 484 36,000  Level Houston Center
09:25AM 30.7047 -95.9808 281° West 425 489 36,000  Level Houston Center
09:26AM 30.7239 -96.1003 281° West 422 486 36,000  Level Houston Center
09:27AM 30.7461 -96.2353 281° West 421 484 36,000  Level Houston Center
09:28AM 30.7719 -96.3933 281° West 422 486 36,000  Level Houston Center
09:29AM 30.7917 -96.5292 280° West 422 486 36,000  Level Houston Center
09:30AM 30.8153 -96.6658 281° West 425 489 36,000  Level Houston Center
09:31AM 30.8372 -96.8022 281° West 426 490 36,000  Level Houston Center
09:32AM 30.8575 -96.9397 280° West 427 491 36,000  Level Houston Center
09:33AM 30.8789 -97.0778 280° West 428 493 36,000  Level Houston Center
09:34AM 30.9006 -97.2222 280° West 428 493 36,000  Level Houston Center
09:35AM 30.9211 -97.3564 280° West 425 489 36,000  Level Houston Center
09:36AM 30.9422 -97.4992 280° West 425 489 36,000  Level Houston Center
09:37AM 30.9628 -97.6375 280° West 427 491 36,000  Level Houston Center
09:38AM 30.9831 -97.7764 280° West 430 495 36,000  Level Houston Center
09:39AM 31.0039 -97.9156 280° West 431 496 36,000  Level Houston Center
09:40AM 31.0250 -98.0547 280° West 434 499 36,000  Level Houston Center
09:41AM 31.0481 -98.2178 279° West 432 497 36,000  Level Houston Center
09:42AM 31.0692 -98.3578 280° West 435 501 36,000  Level Houston Center
09:43AM 31.0897 -98.4983 280° West 435 501 36,000  Level Houston Center
09:44AM 31.1097 -98.6397 279° West 437 503 36,000  Level Houston Center
09:45AM 31.1300 -98.7806 280° West 440 506 36,000  Level Houston Center
09:46AM 31.1497 -98.9219 279° West 437 503 36,000  Level Houston Center
09:47AM 31.1683 -99.0631 279° West 436 502 36,000  Level Houston Center
09:48AM 31.1900 -99.2114 280° West 431 496 36,000  Level Houston Center
09:49AM 31.2078 -99.3478 279° West 427 491 36,000  Level Houston Center
09:50AM 31.2267 -99.4836 279° West 426 490 36,000  Level Houston Center
09:52AM 31.2431 -99.6175 278° West 423 487 36,000  Level Houston Center
09:53AM 31.2619 -99.7525 279° West 426 490 36,000  Level Houston Center
09:54AM 31.2831 -99.9161 279° West 426 490 36,000  Level Houston Center
09:55AM 31.3000 -100.0517 278° West 425 489 36,000  Level Houston Center
09:56AM 31.3183 -100.1872 279° West 426 490 36,000  Level Houston Center
09:57AM 31.3361 -100.3197 279° West 416 479 36,000  Level Houston Center
09:57AM 31.3431 -100.3881 277° West 425 489 36,000  Level Fort Worth Center
09:58AM 31.3608 -100.5150 279° West 430 495 36,000  Level Fort Worth Center
09:59AM 31.3764 -100.6444 278° West 425 489 36,000  Level Fort Worth Center
10:00AM 31.3878 -100.7617 277° West 419 482 36,000  Level Fort Worth Center
10:01AM 31.4086 -100.9206 279° West 414 476 36,000  Level Fort Worth Center
10:02AM 31.4278 -101.0578 279° West 414 476 36,000  Level Fort Worth Center
10:03AM 31.4447 -101.1922 278° West 414 476 36,000  Level Fort Worth Center
10:04AM 31.4614 -101.3269 278° West 419 482 36,000  Level Fort Worth Center
10:05AM 31.4758 -101.4614 277° West 419 482 36,000  Level Fort Worth Center
10:06AM 31.4922 -101.5961 278° West 419 482 36,000  Level Fort Worth Center
10:07AM 31.5106 -101.7333 279° West 424 488 36,000  Level Fort Worth Center
10:08AM 31.5247 -101.8681 277° West 424 488 36,000  Level Fort Worth Center
10:08AM 31.5303 -101.9194 277° West 422 486 36,000  Level Albuquerque Center
10:09AM 31.5450 -102.0539 277° West 421 484 36,000  Level Albuquerque Center
10:10AM 31.5603 -102.1889 278° West 422 486 36,000  Level Albuquerque Center
10:11AM 31.5744 -102.3236 277° West 422 486 36,000  Level Albuquerque Center
10:13AM 31.5889 -102.4581 277° West 421 484 36,000  Level Albuquerque Center
10:14AM 31.6058 -102.6197 277° West 421 484 36,000  Level Albuquerque Center
10:15AM 31.6208 -102.7558 277° West 423 487 36,000  Level Albuquerque Center
10:16AM 31.6344 -102.8897 277° West 417 480 36,000  Level Albuquerque Center
10:17AM 31.6494 -103.0239 278° West 418 481 36,000  Level Albuquerque Center
10:18AM 31.6636 -103.1594 277° West 418 481 36,000  Level Albuquerque Center
10:19AM 31.6775 -103.2944 277° West 418 481 36,000  Level Albuquerque Center
10:20AM 31.6925 -103.4444 277° West 419 482 36,000  Level Albuquerque Center
10:21AM 31.7061 -103.5806 277° West 420 483 36,000  Level Albuquerque Center
10:22AM 31.7203 -103.7169 277° West 420 483 36,000  Level Albuquerque Center
10:23AM 31.7367 -103.8714 277° West 422 486 36,000  Level Albuquerque Center
10:24AM 31.7489 -104.0064 276° West 419 482 36,000  Level Albuquerque Center
10:25AM 31.7681 -104.1414 280° West 420 483 36,000  Level Albuquerque Center
10:26AM 31.8011 -104.2722 287° West 420 483 36,000  Level Albuquerque Center
10:27AM 31.8311 -104.4044 285° West 421 484 36,000  Level Albuquerque Center
10:28AM 31.8614 -104.5361 285° West 421 484 36,000  Level Albuquerque Center
10:29AM 31.8978 -104.6953 285° West 423 487 36,000  Level Albuquerque Center
10:30AM 31.9275 -104.8253 285° West 414 476 36,000  Level Albuquerque Center
10:31AM 31.9578 -104.9553 285° West 415 478 36,000  Level Albuquerque Center
10:32AM 31.9872 -105.0878 285° West 418 481 36,000  Level Albuquerque Center
10:33AM 32.0164 -105.2175 285° West 414 476 36,000  Level Albuquerque Center
10:34AM 32.0453 -105.3517 284° West 420 483 36,000  Level Albuquerque Center
10:35AM 32.0794 -105.5097 284° West 415 478 36,000  Level Albuquerque Center
10:36AM 32.1083 -105.6414 285° West 417 480 36,000  Level Albuquerque Center
10:37AM 32.1372 -105.7756 284° West 422 486 36,000  Level Albuquerque Center
10:38AM 32.1669 -105.9083 285° West 421 484 36,000  Level Albuquerque Center
10:39AM 32.1956 -106.0411 284° West 420 483 36,000  Level Albuquerque Center
10:40AM 32.2244 -106.1756 284° West 423 487 36,000  Level Albuquerque Center
10:41AM 32.2578 -106.3294 284° West 426 490 36,000  Level Albuquerque Center
10:42AM 32.2861 -106.4656 284° West 428 493 36,000  Level Albuquerque Center
10:43AM 32.3147 -106.6033 284° West 431 496 36,000  Level Albuquerque Center
10:44AM 32.3447 -106.7411 284° West 433 498 36,000  Level Albuquerque Center
10:45AM 32.3789 -106.9014 284° West 433 498 36,000  Level Albuquerque Center
10:46AM 32.4103 -107.0511 284° West 436 502 36,000  Level Albuquerque Center
10:48AM 32.4397 -107.1919 284° West 435 501 36,000  Level Albuquerque Center
10:49AM 32.4669 -107.3406 282° West 438 504 36,000  Level Albuquerque Center
10:50AM 32.4950 -107.4783 284° West 436 502 36,000  Level Albuquerque Center
10:51AM 32.5219 -107.6158 283° West 435 501 36,000  Level Albuquerque Center
10:52AM 32.5492 -107.7550 283° West 434 499 36,000  Level Albuquerque Center
10:53AM 32.5767 -107.8936 283° West 436 502 36,000  Level Albuquerque Center
10:54AM 32.6114 -108.0597 284° West 436 502 36,000  Level Albuquerque Center
10:55AM 32.6472 -108.1944 288° West 434 499 36,000  Level Albuquerque Center
10:56AM 32.6831 -108.3306 287° West 435 501 36,000  Level Albuquerque Center
10:57AM 32.7175 -108.4681 287° West 437 503 36,000  Level Albuquerque Center
10:58AM 32.7539 -108.6097 287° West 446 513 36,100  Climbing Albuquerque Center
10:59AM 32.7881 -108.7536 286° West 452 520 36,000 -60 Descending Albuquerque Center
11:00AM 32.8267 -108.9061 287° West 458 527 36,000  Level Albuquerque Center
11:01AM 32.8714 -109.0786 287° West 456 525 36,000  Level Albuquerque Center
11:02AM 32.9047 -109.2236 285° West 457 526 36,000  Level Albuquerque Center
11:03AM 32.9406 -109.3686 286° West 457 526 36,000  Level Albuquerque Center
11:04AM 32.9753 -109.5114 286° West 455 524 36,000  Level Albuquerque Center
11:05AM 33.0097 -109.6536 286° West 452 520 36,000  Level Albuquerque Center
11:06AM 33.0503 -109.8244 286° West 452 520 36,000  Level Albuquerque Center
11:07AM 33.0844 -109.9692 286° West 455 524 36,000  Level Albuquerque Center
11:08AM 33.1206 -110.1125 287° West 457 526 36,000  Level Albuquerque Center
11:09AM 33.1544 -110.2553 286° West 453 521 36,000  Level Albuquerque Center
11:10AM 33.1872 -110.3994 285° West 455 524 36,000  Level Albuquerque Center
11:11AM 33.2275 -110.5733 286° West 455 524 36,000  Level Albuquerque Center
11:12AM 33.2572 -110.7017 286° West 456 525 36,000  Level Albuquerque Center
11:13AM 33.2994 -110.8767 286° West 457 526 36,000  Level Albuquerque Center
11:14AM 33.3336 -111.0278 285° West 457 526 36,000  Level Albuquerque Center
11:15AM 33.3653 -111.1706 285° West 457 526 36,000  Level Albuquerque Center
11:16AM 33.3978 -111.3183 285° West 458 527 36,000  Level Albuquerque Center
11:18AM 33.4308 -111.4647 285° West 455 524 36,000  Level Albuquerque Center
11:19AM 33.4625 -111.6103 285° West 450 518 36,000  Level Albuquerque Center
11:20AM 33.4956 -111.7561 285° West 451 519 36,000  Level Albuquerque Center
11:21AM 33.5333 -111.9308 285° West 450 518 36,000  Level Albuquerque Center
11:22AM 33.5656 -112.0756 285° West 448 516 36,000  Level Albuquerque Center
11:23AM 33.5961 -112.2208 284° West 447 514 36,000  Level Albuquerque Center
11:24AM 33.6278 -112.3653 285° West 446 513 36,000  Level Albuquerque Center
11:25AM 33.6583 -112.5083 284° West 442 509 36,000  Level Albuquerque Center
11:26AM 33.6886 -112.6522 284° West 443 510 36,000  Level Albuquerque Center
11:27AM 33.7189 -112.7969 284° West 446 513 36,000  Level Albuquerque Center
11:28AM 33.7550 -112.9697 284° West 445 512 36,000  Level Albuquerque Center
11:29AM 33.7864 -113.1161 285° West 450 518 36,000  Level Albuquerque Center
11:30AM 33.8156 -113.2614 284° West 450 518 36,000  Level Albuquerque Center
11:31AM 33.8461 -113.4064 284° West 449 517 36,000  Level Albuquerque Center
11:32AM 33.8764 -113.5522 284° West 450 518 36,000  Level Albuquerque Center
11:33AM 33.9064 -113.6975 284° West 448 516 36,000  Level Albuquerque Center
11:34AM 33.9317 -113.8739 280° West 446 513 36,000  Level Albuquerque Center
11:35AM 33.9464 -114.0236 277° West 449 517 36,000  Level Albuquerque Center
11:36AM 33.9617 -114.1711 277° West 446 513 36,000  Level Albuquerque Center
11:37AM 33.9769 -114.3300 277° West 444 511 36,000 -420 Level Albuquerque Center
11:38AM 33.9961 -114.5108 277° West 445 512 35,100 -840 Descending Los Angeles Center
11:39AM 34.0103 -114.6586 277° West 446 513 34,200 -960 Descending Los Angeles Center
11:40AM 34.0247 -114.8044 277° West 441 507 33,200 -960 Descending Los Angeles Center
11:41AM 34.0386 -114.9503 277° West 441 507 32,300 -600 Descending Los Angeles Center
11:42AM 34.0519 -115.0992 276° West 448 516 32,000 -180 Descending Los Angeles Center
11:44AM 34.0667 -115.2483 277° West 451 519 32,000  Level Los Angeles Center
11:45AM 34.0828 -115.4278 276° West 451 519 32,000  Level Los Angeles Center
11:46AM 34.0958 -115.5778 276° West 452 520 32,000  Level Los Angeles Center
11:47AM 34.1094 -115.7278 276° West 452 520 32,000  Level Los Angeles Center
11:48AM 34.0972 -115.8775 264° West 456 525 32,000 -420 Level Los Angeles Center
11:49AM 34.0750 -116.0250 260° West 452 520 31,200 -960 Descending Los Angeles Center
11:50AM 34.0469 -116.2056 259° West 457 526 30,100 -1,080 Descending Los Angeles Center
11:51AM 34.0247 -116.3572 260° West 461 531 29,000 -1,680 Descending Los Angeles Center
11:52AM 34.0039 -116.5042 260° West 453 521 26,700 -2,220 Descending Los Angeles Center
11:53AM 33.9931 -116.6483 265° West 440 506 24,400 -2,220 Descending Los Angeles Center
11:54AM 33.9814 -116.7864 264° West 425 489 22,100 -2,460 Descending Los Angeles Center
11:55AM 33.9689 -116.9456 265° West 406 467 19,400 -2,460 Descending Los Angeles Center
11:56AM 33.9586 -117.0747 265° West 394 453 17,100 -1,260 Descending Los Angeles Center
11:57AM 33.9475 -117.1956 264° West 355 409 16,800 -780 Descending Los Angeles Center
11:58AM 33.9378 -117.3028 264° West 314 361 15,500 -1,320 Descending Los Angeles Center
11:59AM 33.9400 -117.4003 272° West 293 337 14,100 -1,440 Descending Los Angeles Center
12:00PM 33.9833 -117.5000 298° West 287 330 12,500 -1,380 Descending Southern California TRACON
12:02PM 34.0000 -117.6833 276° West 276 318 9,900 -1,260 Descending Southern California TRACON
12:03PM 34.0000 -117.7833 270° West 283 326 8,700 -1,080 Descending Southern California TRACON
12:04PM 33.9833 -117.8833 259° West 277 319 7,800 -1,020 Descending Southern California TRACON
12:06PM 33.9667 -118.0167 261° West 189 217 5,700 -960 Descending Southern California TRACON
12:09PM 33.9597 -118.1628 267° West 178 205 3,700 -840 Descending Los Angeles Center
12:10PM 33.9539 -118.2225 263° West 180 207 2,900 -780 Descending Los Angeles Center